메인 페이지
METAR-TAF:

METAR-TAF

공항 :

카옌로 샹부 공항

카옌, 프랑스령 기아나

위도: 04-50N, 경도: 052-22W, 고도: 105m

현재 날씨관측

예보는 8분 전, 23:30시(UTC)에 발표되었습니다.
무풍
온도 26°C
습도 84%
기압 1013 hPa
시정 10km 이상
고도 2500ft 상공 구름 조금

METAR: SOCA 012330Z AUTO 00000KT 9999 FEW025 26/23 Q1013 NOSIG

시각: 20:38 (23:38 UTC)

예보

예보는 38분 전, 23:00시(UTC)에 발표되었습니다.
예보 대상 시간: 02일 00시부터 02일 24시까지 (UTC)
여러 방향의 바람 3kt
시정 10km 이상
고도 3000ft 상공 구름 조금
일시적
02일 06시부터 02일 24시까지 (UTC)
시정: 3000m
고도 700ft 상공 구름 보통
고도 1200ft 상공 구름 많음, 타워링 적운.
소나기
전환 중
02일 12시부터 02일 14시까지 (UTC)
10kt
확률 30% :
일시적
02일 18시부터 02일 21시까지 (UTC)
시정: 1500m
고도 1000ft 상공 구름 많음, 적란운.

TAF: SOCA 012300Z 0200/0224 VRB03KT 9999 FEW030 TEMPO 0206/0224 3000 SHRA SCT007 BKN012TCU BECMG 0212/0214 08010KT PROB30 TEMPO 0218/0221 1500 BKN010CB

4,000개 이상의 공항 관측 자료 및 예보 (METAR 및 TAF 보고).

지도상에서 검색 가능한 기상관측소가 노란 점과 빨간 점으로 표시되어 있습니다.

기상관측소 명을 보려면 표시 위로 마우스를 이동하세요.

날씨 관측과 예보를 보려면 클릭하세요.

지도 변경 : 확대하려면 엑스 표시가 있는 녹색 버튼, 축소하려면 빼기 표시가 있는 녹색 버튼, 다음 페이지의 지도를 보려면 녹색 화살표를 클릭하세요.


METAR-TAF: